KBIF/BIF METAR and TAF weather

Enter ICAO airport designator
Station Type Date Time Source
KBIF METAR 2022/06/27 07:58 UTC NOAA

KBIF 270758Z AUTO 36005KT 10SM OVC170 22/14 A3029 RMK AO2 SLP191 T02180139 $


Station Type Date Time Source
KBIF Decoded METAR 2022/06/27 07:58 UTC NOAA

Biggs Army Air Field / Ft. Bliss, TX, United States (KBIF) 31-51N 106-23W
Jun 27, 2022 - 03:58 AM EDT / 2022.06.27 0758 UTC
Wind: from the N (360 degrees) at 6 MPH (5 KT):0
Visibility: 10 mile(s):0
Sky conditions: overcast
Temperature: 71.2 F (21.8 C)
Dew Point: 57.0 F (13.9 C)
Relative Humidity: 60%
Pressure (altimeter): 30.29 in. Hg (1025 hPa)
ob: KBIF 270758Z AUTO 36005KT 10SM OVC170 22/14 A3029 RMK AO2 SLP191 T02180139
cycle: 8

Station Type Date Time Source
KBIF TAF 2022/06/27 06:07 UTC NOAA

TAF KBIF 270600Z 2706/2812 08012KT 9999 SCT080 BKN180 QNH3014INS
BECMG 2710/2711 02011KT 9999 SCT250 QNH3026INS
BECMG 2717/2718 09012G22KT 9999 SCT090 QNH3017INS TX31/2722Z TN21/2712Z

Example: see airport list